sensor_id;sensor_type;location;lat;lon;timestamp;pressure;altitude;pressure_sealevel;temperature;humidity
49979;BME280;35869;50.990;6.962;2023-08-31T00:00:19;100576.41;;;13.45;100.00
49979;BME280;35869;50.990;6.962;2023-08-31T00:05:20;100578.91;;;13.47;100.00
49979;BME280;35869;50.990;6.962;2023-08-31T00:10:20;100572.97;;;13.45;100.00
49979;BME280;35869;50.990;6.962;2023-08-31T00:15:20;100577.34;;;13.44;100.00
49979;BME280;35869;50.990;6.962;2023-08-31T00:20:20;100567.00;;;13.43;100.00
49979;BME280;35869;50.990;6.962;2023-08-31T00:25:21;100567.00;;;13.43;100.00
49979;BME280;35869;50.990;6.962;2023-08-31T00:30:21;100557.47;;;13.42;100.00
49979;BME280;35869;50.990;6.962;2023-08-31T00:35:21;100558.50;;;13.39;100.00
49979;BME280;35869;50.990;6.962;2023-08-31T00:40:21;100562.97;;;13.37;100.00
49979;BME280;35869;50.990;6.962;2023-08-31T00:45:40;100573.47;;;13.36;100.00
49979;BME280;35869;50.990;6.962;2023-08-31T00:50:52;100572.06;;;13.30;100.00
49979;BME280;35869;50.990;6.962;2023-08-31T00:55:52;100571.16;;;13.31;100.00
49979;BME280;35869;50.990;6.962;2023-08-31T01:01:01;100580.00;;;13.28;100.00
49979;BME280;35869;50.990;6.962;2023-08-31T01:06:50;100575.81;;;13.26;100.00
49979;BME280;35869;50.990;6.962;2023-08-31T01:34:48;100576.81;;;13.23;100.00
49979;BME280;35869;50.990;6.962;2023-08-31T01:39:56;100579.31;;;13.25;100.00
49979;BME280;35869;50.990;6.962;2023-08-31T01:45:00;100583.19;;;13.18;100.00
49979;BME280;35869;50.990;6.962;2023-08-31T01:50:04;100591.94;;;13.17;100.00
49979;BME280;35869;50.990;6.962;2023-08-31T01:55:06;100588.66;;;13.13;100.00
49979;BME280;35869;50.990;6.962;2023-08-31T02:00:10;100589.69;;;13.11;100.00
49979;BME280;35869;50.990;6.962;2023-08-31T02:16:10;100598.22;;;12.98;100.00
49979;BME280;35869;50.990;6.962;2023-08-31T03:11:11;100611.84;;;12.72;100.00
49979;BME280;35869;50.990;6.962;2023-08-31T03:16:20;100616.41;;;12.68;100.00
49979;BME280;35869;50.990;6.962;2023-08-31T03:21:28;100612.34;;;12.63;100.00
49979;BME280;35869;50.990;6.962;2023-08-31T03:27:02;100618.75;;;12.57;100.00
49979;BME280;35869;50.990;6.962;2023-08-31T03:32:05;100616.88;;;12.59;100.00
49979;BME280;35869;50.990;6.962;2023-08-31T03:37:06;100622.88;;;12.61;100.00
49979;BME280;35869;50.990;6.962;2023-08-31T03:42:06;100625.81;;;12.55;100.00
49979;BME280;35869;50.990;6.962;2023-08-31T03:47:14;100624.09;;;12.54;100.00
49979;BME280;35869;50.990;6.962;2023-08-31T03:58:39;100625.81;;;12.55;100.00
49979;BME280;35869;50.990;6.962;2023-08-31T04:04:48;100625.22;;;12.50;100.00
49979;BME280;35869;50.990;6.962;2023-08-31T04:09:54;100629.19;;;12.57;100.00
49979;BME280;35869;50.990;6.962;2023-08-31T04:14:54;100634.16;;;12.62;100.00
49979;BME280;35869;50.990;6.962;2023-08-31T04:25:36;100631.03;;;12.55;100.00
49979;BME280;35869;50.990;6.962;2023-08-31T04:42:21;100651.88;;;12.55;100.00
49979;BME280;35869;50.990;6.962;2023-08-31T04:58:59;100667.34;;;12.58;100.00
49979;BME280;35869;50.990;6.962;2023-08-31T05:03:59;100668.28;;;12.57;100.00
49979;BME280;35869;50.990;6.962;2023-08-31T05:09:00;100679.31;;;12.62;100.00
49979;BME280;35869;50.990;6.962;2023-08-31T05:14:00;100680.38;;;12.58;100.00
49979;BME280;35869;50.990;6.962;2023-08-31T05:19:00;100683.84;;;12.59;100.00
49979;BME280;35869;50.990;6.962;2023-08-31T05:24:00;100701.34;;;12.57;100.00
49979;BME280;35869;50.990;6.962;2023-08-31T05:29:00;100704.09;;;12.53;100.00
49979;BME280;35869;50.990;6.962;2023-08-31T05:34:48;100708.69;;;12.48;100.00
49979;BME280;35869;50.990;6.962;2023-08-31T05:39:54;100709.72;;;12.46;100.00
49979;BME280;35869;50.990;6.962;2023-08-31T05:44:57;100717.44;;;12.47;100.00
49979;BME280;35869;50.990;6.962;2023-08-31T05:50:22;100720.13;;;12.46;100.00
49979;BME280;35869;50.990;6.962;2023-08-31T06:07:13;100729.97;;;12.41;100.00
49979;BME280;35869;50.990;6.962;2023-08-31T06:12:19;100724.00;;;12.39;100.00
49979;BME280;35869;50.990;6.962;2023-08-31T06:17:33;100733.50;;;12.40;100.00
49979;BME280;35869;50.990;6.962;2023-08-31T06:22:37;100737.69;;;12.42;100.00
49979;BME280;35869;50.990;6.962;2023-08-31T06:27:55;100739.72;;;12.37;100.00
49979;BME280;35869;50.990;6.962;2023-08-31T06:32:58;100747.13;;;12.45;100.00
49979;BME280;35869;50.990;6.962;2023-08-31T06:38:00;100744.66;;;12.42;100.00
49979;BME280;35869;50.990;6.962;2023-08-31T06:43:43;100744.31;;;12.49;100.00
49979;BME280;35869;50.990;6.962;2023-08-31T06:48:36;100744.34;;;12.48;100.00
49979;BME280;35869;50.990;6.962;2023-08-31T06:53:37;100752.97;;;12.50;100.00
49979;BME280;35869;50.990;6.962;2023-08-31T06:58:37;100750.97;;;12.55;100.00
49979;BME280;35869;50.990;6.962;2023-08-31T07:03:40;100754.16;;;12.60;100.00
49979;BME280;35869;50.990;6.962;2023-08-31T07:08:46;100755.06;;;12.59;100.00
49979;BME280;35869;50.990;6.962;2023-08-31T07:13:46;100757.53;;;12.62;100.00
49979;BME280;35869;50.990;6.962;2023-08-31T07:18:49;100758.47;;;12.77;100.00
49979;BME280;35869;50.990;6.962;2023-08-31T07:29:32;100771.56;;;12.93;100.00
49979;BME280;35869;50.990;6.962;2023-08-31T07:34:33;100777.19;;;13.01;100.00
49979;BME280;35869;50.990;6.962;2023-08-31T07:39:33;100775.97;;;13.08;100.00
49979;BME280;35869;50.990;6.962;2023-08-31T07:44:33;100779.84;;;13.17;100.00
49979;BME280;35869;50.990;6.962;2023-08-31T07:49:34;100784.50;;;13.27;100.00
49979;BME280;35869;50.990;6.962;2023-08-31T07:54:34;100793.53;;;13.38;100.00
49979;BME280;35869;50.990;6.962;2023-08-31T07:59:34;100793.03;;;13.47;100.00
49979;BME280;35869;50.990;6.962;2023-08-31T08:04:34;100793.59;;;13.52;100.00
49979;BME280;35869;50.990;6.962;2023-08-31T08:09:35;100804.22;;;13.65;100.00
49979;BME280;35869;50.990;6.962;2023-08-31T08:14:35;100799.13;;;13.77;100.00
49979;BME280;35869;50.990;6.962;2023-08-31T08:19:35;100808.84;;;13.91;100.00
49979;BME280;35869;50.990;6.962;2023-08-31T08:24:35;100809.72;;;14.06;100.00
49979;BME280;35869;50.990;6.962;2023-08-31T08:29:35;100820.22;;;14.20;100.00
49979;BME280;35869;50.990;6.962;2023-08-31T08:34:36;100815.81;;;14.36;100.00
49979;BME280;35869;50.990;6.962;2023-08-31T08:39:36;100808.50;;;14.41;100.00
49979;BME280;35869;50.990;6.962;2023-08-31T08:44:36;100807.47;;;14.74;100.00
49979;BME280;35869;50.990;6.962;2023-08-31T08:49:36;100810.00;;;14.76;100.00
49979;BME280;35869;50.990;6.962;2023-08-31T08:54:37;100816.72;;;14.94;100.00
49979;BME280;35869;50.990;6.962;2023-08-31T08:59:38;100807.69;;;14.85;100.00
49979;BME280;35869;50.990;6.962;2023-08-31T09:04:38;100819.81;;;15.01;100.00
49979;BME280;35869;50.990;6.962;2023-08-31T09:09:47;100819.63;;;15.04;100.00
49979;BME280;35869;50.990;6.962;2023-08-31T09:15:02;100821.31;;;15.19;100.00
49979;BME280;35869;50.990;6.962;2023-08-31T09:20:03;100817.47;;;15.25;100.00
49979;BME280;35869;50.990;6.962;2023-08-31T09:25:04;100818.16;;;15.14;100.00
49979;BME280;35869;50.990;6.962;2023-08-31T09:30:06;100826.72;;;15.16;100.00
49979;BME280;35869;50.990;6.962;2023-08-31T09:35:11;100820.09;;;15.25;100.00
49979;BME280;35869;50.990;6.962;2023-08-31T09:40:21;100829.09;;;15.47;100.00
49979;BME280;35869;50.990;6.962;2023-08-31T09:46:03;100823.25;;;15.85;100.00
49979;BME280;35869;50.990;6.962;2023-08-31T09:56:52;100822.34;;;15.99;100.00
49979;BME280;35869;50.990;6.962;2023-08-31T10:07:56;100821.13;;;16.17;100.00
49979;BME280;35869;50.990;6.962;2023-08-31T10:13:00;100818.09;;;16.11;100.00
49979;BME280;35869;50.990;6.962;2023-08-31T10:23:45;100836.72;;;16.33;100.00
49979;BME280;35869;50.990;6.962;2023-08-31T10:28:45;100835.56;;;16.37;100.00
49979;BME280;35869;50.990;6.962;2023-08-31T10:33:59;100823.69;;;16.84;100.00
49979;BME280;35869;50.990;6.962;2023-08-31T10:39:17;100827.88;;;16.87;98.44
49979;BME280;35869;50.990;6.962;2023-08-31T10:44:52;100833.38;;;17.33;96.88
49979;BME280;35869;50.990;6.962;2023-08-31T10:50:16;100830.81;;;16.95;94.28
49979;BME280;35869;50.990;6.962;2023-08-31T10:55:19;100830.03;;;17.68;97.57
49979;BME280;35869;50.990;6.962;2023-08-31T11:06:41;100819.38;;;17.69;96.50
49979;BME280;35869;50.990;6.962;2023-08-31T11:11:49;100815.69;;;17.48;90.80
49979;BME280;35869;50.990;6.962;2023-08-31T11:16:49;100813.22;;;17.57;90.14
49979;BME280;35869;50.990;6.962;2023-08-31T11:22:02;100814.38;;;18.14;87.06
49979;BME280;35869;50.990;6.962;2023-08-31T11:27:07;100801.00;;;17.93;92.20
49979;BME280;35869;50.990;6.962;2023-08-31T11:32:08;100797.50;;;18.17;92.94
49979;BME280;35869;50.990;6.962;2023-08-31T11:38:00;100787.31;;;18.36;88.01
49979;BME280;35869;50.990;6.962;2023-08-31T11:43:01;100799.75;;;18.45;91.77
49979;BME280;35869;50.990;6.962;2023-08-31T11:48:15;100804.84;;;18.24;87.02
49979;BME280;35869;50.990;6.962;2023-08-31T11:58:46;100792.59;;;18.58;90.73
49979;BME280;35869;50.990;6.962;2023-08-31T12:03:46;100808.81;;;18.76;83.17
49979;BME280;35869;50.990;6.962;2023-08-31T12:08:47;100791.94;;;18.90;87.73
49979;BME280;35869;50.990;6.962;2023-08-31T12:13:53;100796.94;;;19.15;88.35
49979;BME280;35869;50.990;6.962;2023-08-31T12:19:05;100801.22;;;19.50;88.04
49979;BME280;35869;50.990;6.962;2023-08-31T12:24:06;100800.25;;;19.40;89.36
49979;BME280;35869;50.990;6.962;2023-08-31T12:29:15;100810.47;;;19.33;84.19
49979;BME280;35869;50.990;6.962;2023-08-31T12:39:41;100810.13;;;19.27;85.97
49979;BME280;35869;50.990;6.962;2023-08-31T12:51:03;100796.00;;;19.05;83.73
49979;BME280;35869;50.990;6.962;2023-08-31T13:01:52;100807.38;;;18.95;81.55
49979;BME280;35869;50.990;6.962;2023-08-31T13:07:05;100801.75;;;18.88;85.73
49979;BME280;35869;50.990;6.962;2023-08-31T13:12:45;100794.22;;;18.83;84.17
49979;BME280;35869;50.990;6.962;2023-08-31T13:17:47;100802.22;;;18.93;86.44
49979;BME280;35869;50.990;6.962;2023-08-31T13:23:03;100793.16;;;19.52;81.88
49979;BME280;35869;50.990;6.962;2023-08-31T13:28:03;100793.59;;;19.13;84.41
49979;BME280;35869;50.990;6.962;2023-08-31T13:38:32;100793.13;;;18.97;87.03
49979;BME280;35869;50.990;6.962;2023-08-31T13:43:32;100791.19;;;19.22;84.47
49979;BME280;35869;50.990;6.962;2023-08-31T13:54:05;100794.88;;;19.53;80.04
49979;BME280;35869;50.990;6.962;2023-08-31T13:59:08;100792.34;;;19.51;82.24
49979;BME280;35869;50.990;6.962;2023-08-31T14:04:57;100795.44;;;19.67;84.12
49979;BME280;35869;50.990;6.962;2023-08-31T14:09:41;100789.44;;;19.77;81.45
49979;BME280;35869;50.990;6.962;2023-08-31T14:14:43;100785.97;;;19.97;81.20
49979;BME280;35869;50.990;6.962;2023-08-31T14:19:58;100792.63;;;20.12;82.71
49979;BME280;35869;50.990;6.962;2023-08-31T14:25:14;100766.81;;;20.37;72.00
49979;BME280;35869;50.990;6.962;2023-08-31T14:30:35;100768.94;;;20.43;71.43
49979;BME280;35869;50.990;6.962;2023-08-31T14:35:49;100778.88;;;20.30;71.78
49979;BME280;35869;50.990;6.962;2023-08-31T14:40:56;100776.59;;;20.25;74.10
49979;BME280;35869;50.990;6.962;2023-08-31T14:46:06;100782.69;;;20.98;72.06
49979;BME280;35869;50.990;6.962;2023-08-31T14:51:18;100783.91;;;20.54;74.25
49979;BME280;35869;50.990;6.962;2023-08-31T14:56:18;100795.84;;;20.79;72.99
49979;BME280;35869;50.990;6.962;2023-08-31T15:06:57;100793.19;;;20.48;71.28
49979;BME280;35869;50.990;6.962;2023-08-31T15:12:11;100804.03;;;20.13;72.55
49979;BME280;35869;50.990;6.962;2023-08-31T15:17:33;100812.16;;;20.42;75.16
49979;BME280;35869;50.990;6.962;2023-08-31T15:22:33;100816.13;;;20.47;73.90
49979;BME280;35869;50.990;6.962;2023-08-31T15:27:48;100811.81;;;20.14;72.12
49979;BME280;35869;50.990;6.962;2023-08-31T15:32:48;100822.50;;;20.34;74.52
49979;BME280;35869;50.990;6.962;2023-08-31T15:37:48;100817.91;;;20.15;72.29
49979;BME280;35869;50.990;6.962;2023-08-31T15:42:49;100820.97;;;19.99;70.53
49979;BME280;35869;50.990;6.962;2023-08-31T15:47:49;100816.28;;;19.82;72.16
49979;BME280;35869;50.990;6.962;2023-08-31T15:52:49;100814.22;;;19.85;75.32
49979;BME280;35869;50.990;6.962;2023-08-31T15:57:49;100817.81;;;19.84;71.26
49979;BME280;35869;50.990;6.962;2023-08-31T16:02:50;100821.72;;;20.01;68.68
49979;BME280;35869;50.990;6.962;2023-08-31T16:07:50;100821.59;;;19.59;69.54
49979;BME280;35869;50.990;6.962;2023-08-31T16:12:50;100811.38;;;19.77;70.24
49979;BME280;35869;50.990;6.962;2023-08-31T16:17:51;100810.63;;;19.75;71.85
49979;BME280;35869;50.990;6.962;2023-08-31T16:22:51;100811.63;;;19.63;72.02
49979;BME280;35869;50.990;6.962;2023-08-31T16:27:51;100813.41;;;19.74;75.55
49979;BME280;35869;50.990;6.962;2023-08-31T16:32:52;100815.81;;;19.77;74.89
49979;BME280;35869;50.990;6.962;2023-08-31T16:37:52;100812.34;;;19.54;75.91
49979;BME280;35869;50.990;6.962;2023-08-31T16:42:52;100818.69;;;19.51;75.63
49979;BME280;35869;50.990;6.962;2023-08-31T16:47:53;100822.19;;;19.40;75.10
49979;BME280;35869;50.990;6.962;2023-08-31T16:52:53;100826.88;;;19.14;74.98
49979;BME280;35869;50.990;6.962;2023-08-31T16:57:53;100822.09;;;19.31;73.69
49979;BME280;35869;50.990;6.962;2023-08-31T17:02:53;100827.09;;;19.45;69.50
49979;BME280;35869;50.990;6.962;2023-08-31T17:07:54;100823.28;;;19.15;78.40
49979;BME280;35869;50.990;6.962;2023-08-31T17:12:54;100819.13;;;19.13;77.50
49979;BME280;35869;50.990;6.962;2023-08-31T17:17:54;100818.38;;;19.11;79.43
49979;BME280;35869;50.990;6.962;2023-08-31T17:22:54;100840.19;;;19.02;80.00
49979;BME280;35869;50.990;6.962;2023-08-31T17:27:54;100847.72;;;18.95;76.72
49979;BME280;35869;50.990;6.962;2023-08-31T17:32:55;100839.31;;;18.68;77.91
49979;BME280;35869;50.990;6.962;2023-08-31T17:37:55;100838.00;;;18.73;78.68
49979;BME280;35869;50.990;6.962;2023-08-31T17:42:55;100847.16;;;18.56;79.28
49979;BME280;35869;50.990;6.962;2023-08-31T17:47:55;100853.00;;;18.49;78.87
49979;BME280;35869;50.990;6.962;2023-08-31T17:52:55;100856.31;;;18.39;80.64
49979;BME280;35869;50.990;6.962;2023-08-31T17:57:56;100861.03;;;18.47;80.08
49979;BME280;35869;50.990;6.962;2023-08-31T18:02:56;100861.06;;;18.34;85.17
49979;BME280;35869;50.990;6.962;2023-08-31T18:07:56;100868.59;;;18.28;84.39
49979;BME280;35869;50.990;6.962;2023-08-31T18:12:57;100873.47;;;18.21;86.14
49979;BME280;35869;50.990;6.962;2023-08-31T18:17:57;100872.25;;;18.14;87.37
49979;BME280;35869;50.990;6.962;2023-08-31T18:22:57;100885.72;;;18.09;86.01
49979;BME280;35869;50.990;6.962;2023-08-31T18:27:57;100888.19;;;18.00;87.19
49979;BME280;35869;50.990;6.962;2023-08-31T18:32:58;100886.00;;;17.94;88.87
49979;BME280;35869;50.990;6.962;2023-08-31T18:37:58;100893.41;;;17.89;90.11
49979;BME280;35869;50.990;6.962;2023-08-31T18:42:58;100898.34;;;17.80;90.58
49979;BME280;35869;50.990;6.962;2023-08-31T18:47:58;100911.09;;;17.74;91.38
49979;BME280;35869;50.990;6.962;2023-08-31T18:52:59;100915.09;;;17.67;93.08
49979;BME280;35869;50.990;6.962;2023-08-31T18:57:59;100907.97;;;17.56;92.02
49979;BME280;35869;50.990;6.962;2023-08-31T19:03:00;100913.13;;;17.45;91.17
49979;BME280;35869;50.990;6.962;2023-08-31T19:08:00;100912.72;;;17.38;89.79
49979;BME280;35869;50.990;6.962;2023-08-31T19:13:00;100910.72;;;17.29;91.59
49979;BME280;35869;50.990;6.962;2023-08-31T19:18:01;100932.16;;;17.23;90.60
49979;BME280;35869;50.990;6.962;2023-08-31T19:23:01;100930.91;;;17.16;91.25
49979;BME280;35869;50.990;6.962;2023-08-31T19:28:03;100927.97;;;17.08;91.90
49979;BME280;35869;50.990;6.962;2023-08-31T19:33:04;100927.31;;;17.04;92.40
49979;BME280;35869;50.990;6.962;2023-08-31T19:38:05;100929.00;;;16.92;94.40
49979;BME280;35869;50.990;6.962;2023-08-31T19:43:05;100927.75;;;16.85;96.00
49979;BME280;35869;50.990;6.962;2023-08-31T19:48:06;100933.28;;;16.81;97.29
49979;BME280;35869;50.990;6.962;2023-08-31T19:53:07;100940.84;;;16.72;97.02
49979;BME280;35869;50.990;6.962;2023-08-31T19:58:08;100948.03;;;16.69;98.66
49979;BME280;35869;50.990;6.962;2023-08-31T20:03:08;100949.50;;;16.60;98.01
49979;BME280;35869;50.990;6.962;2023-08-31T20:08:08;100945.06;;;16.48;98.21
49979;BME280;35869;50.990;6.962;2023-08-31T20:13:09;100943.56;;;16.44;97.74
49979;BME280;35869;50.990;6.962;2023-08-31T20:18:09;100950.88;;;16.39;98.35
49979;BME280;35869;50.990;6.962;2023-08-31T20:23:09;100962.63;;;16.33;98.37
49979;BME280;35869;50.990;6.962;2023-08-31T20:28:09;100952.53;;;16.27;98.58
49979;BME280;35869;50.990;6.962;2023-08-31T20:33:10;100952.91;;;16.21;99.03
49979;BME280;35869;50.990;6.962;2023-08-31T20:38:10;100961.91;;;16.17;99.01
49979;BME280;35869;50.990;6.962;2023-08-31T20:43:10;100955.38;;;16.10;99.97
49979;BME280;35869;50.990;6.962;2023-08-31T20:48:10;100952.41;;;16.02;99.75
49979;BME280;35869;50.990;6.962;2023-08-31T20:53:11;100947.56;;;15.95;100.00
49979;BME280;35869;50.990;6.962;2023-08-31T20:58:11;100946.25;;;15.88;100.00
49979;BME280;35869;50.990;6.962;2023-08-31T21:03:11;100944.78;;;15.84;100.00
49979;BME280;35869;50.990;6.962;2023-08-31T21:08:11;100948.06;;;15.73;100.00
49979;BME280;35869;50.990;6.962;2023-08-31T21:13:11;100943.81;;;15.71;100.00
49979;BME280;35869;50.990;6.962;2023-08-31T21:18:12;100948.44;;;15.67;100.00
49979;BME280;35869;50.990;6.962;2023-08-31T21:23:12;100941.03;;;15.60;100.00
49979;BME280;35869;50.990;6.962;2023-08-31T21:28:12;100938.56;;;15.57;100.00
49979;BME280;35869;50.990;6.962;2023-08-31T21:33:12;100929.59;;;15.46;100.00
49979;BME280;35869;50.990;6.962;2023-08-31T21:38:13;100923.06;;;15.39;100.00
49979;BME280;35869;50.990;6.962;2023-08-31T21:43:14;100936.25;;;15.38;100.00
49979;BME280;35869;50.990;6.962;2023-08-31T21:48:14;100939.25;;;15.32;100.00
49979;BME280;35869;50.990;6.962;2023-08-31T21:53:14;100937.00;;;15.26;100.00
49979;BME280;35869;50.990;6.962;2023-08-31T21:58:14;100930.44;;;15.18;100.00
49979;BME280;35869;50.990;6.962;2023-08-31T22:03:15;100932.41;;;15.15;100.00
49979;BME280;35869;50.990;6.962;2023-08-31T22:08:15;100927.53;;;15.09;100.00
49979;BME280;35869;50.990;6.962;2023-08-31T22:13:15;100940.97;;;15.03;100.00
49979;BME280;35869;50.990;6.962;2023-08-31T22:18:15;100940.63;;;15.09;100.00
49979;BME280;35869;50.990;6.962;2023-08-31T22:23:16;100932.19;;;15.04;100.00
49979;BME280;35869;50.990;6.962;2023-08-31T22:28:16;100935.66;;;15.04;100.00
49979;BME280;35869;50.990;6.962;2023-08-31T22:33:16;100945.53;;;14.99;100.00
49979;BME280;35869;50.990;6.962;2023-08-31T22:38:17;100943.19;;;14.94;100.00
49979;BME280;35869;50.990;6.962;2023-08-31T22:43:17;100937.47;;;14.88;100.00
49979;BME280;35869;50.990;6.962;2023-08-31T22:48:17;100928.88;;;14.86;100.00
49979;BME280;35869;50.990;6.962;2023-08-31T22:53:17;100922.97;;;14.82;100.00
49979;BME280;35869;50.990;6.962;2023-08-31T22:58:17;100935.47;;;14.77;100.00
49979;BME280;35869;50.990;6.962;2023-08-31T23:03:18;100943.91;;;14.82;100.00
49979;BME280;35869;50.990;6.962;2023-08-31T23:08:18;100947.94;;;14.88;100.00
49979;BME280;35869;50.990;6.962;2023-08-31T23:13:18;100948.16;;;14.85;100.00
49979;BME280;35869;50.990;6.962;2023-08-31T23:18:19;100954.84;;;14.89;100.00
49979;BME280;35869;50.990;6.962;2023-08-31T23:23:20;100938.91;;;14.93;100.00
49979;BME280;35869;50.990;6.962;2023-08-31T23:28:20;100947.88;;;14.89;100.00
49979;BME280;35869;50.990;6.962;2023-08-31T23:33:20;100931.03;;;14.93;100.00
49979;BME280;35869;50.990;6.962;2023-08-31T23:38:22;100920.56;;;14.93;100.00
49979;BME280;35869;50.990;6.962;2023-08-31T23:43:23;100909.28;;;14.93;100.00
49979;BME280;35869;50.990;6.962;2023-08-31T23:48:23;100910.78;;;14.97;100.00
49979;BME280;35869;50.990;6.962;2023-08-31T23:53:23;100906.28;;;14.99;100.00
49979;BME280;35869;50.990;6.962;2023-08-31T23:58:23;100907.97;;;15.00;100.00
